Terminal Aerodrome Forecast
Issued by NWS Tuscon, AZ

Home | Current Version | Previous Version | Text Only | Print | Product List | Glossary On
Versions: 1 2 3 4 5 6 7 8 9 10 11 12
000
FTUS45 KTWC 291100
TAFDUG
TAF
KDUG 291120Z 2912/3012 VRB03KT P6SM SCT250
     FM291900 23012G20KT P6SM BKN250
     FM300200 21009KT P6SM OVC200
     FM300600 34006KT P6SM OVC200=

USA.gov is the U.S. government's official web portal to all federal, state and local government web resources and services.